Terminal Aerodrome Forecast
Issued by NWS Wilmington, NC

Home | Current Version | Previous Version | Text Only | Print | Product List | Glossary On
Versions: 1 2 3 4 5 6 7 8 9 10 11 12 13 14 15 16 17 18 19 20 21 22 23 24 25
604
FTUS42 KILM 191759 CCB
TAFMYR
TAF COR
KMYR 191759Z 1918/2018 16007KT 6SM -RA VCSH SCT005 BKN050
      TEMPO 1918/1921 3SM BR BKN004
     FM200100 18006KT 3SM BR BKN007
      TEMPO 2002/2006 1SM BR OVC003
     FM200600 VRB03KT 1/2SM FG VV002
     FM201300 16005KT 3SM BR BKN004
     FM201400 17006KT P6SM SCT007 BKN040=

USA.gov is the U.S. government's official web portal to all federal, state and local government web resources and services.